Time;durP1;ratioP1;P1;durP2;ratioP2;P2;SDS_P1;SDS_P2;PMS_P1;PMS_P2;Temp;Humidity;BMP_temperature;BMP_pressure;BME280_temperature;BME280_humidity;BME280_pressure;Samples;Min_cycle;Max_cycle;Signal;HPM_P1;HPM_P2
2021/12/22 00:01:22;;;;;;;22.77;12.43;;;;;;;;;;5102281;27;20051;-89
2021/12/22 00:03:48;;;;;;;17.38;11.95;;;;;;;;;;5138258;27;20053;-89
2021/12/22 00:06:19;;;;;;;21.02;12.48;;;;;;;;;;5119623;27;20039;-89
2021/12/22 00:08:45;;;;;;;20.25;12.80;;;;;;;;;;5120025;27;20058;-89
2021/12/22 00:11:11;;;;;;;27.80;15.90;;;;;;;;;;5120333;27;20190;-90
2021/12/22 00:13:38;;;;;;;16.95;11.98;;;;;;;;;;5102273;27;20130;-89
2021/12/22 00:16:04;;;;;;;21.52;12.35;;;;;;;;;;5102330;27;20043;-90
2021/12/22 00:18:30;;;;;;;19.92;12.10;;;;;;;;;;5119722;27;20093;-89
2021/12/22 00:20:56;;;;;;;20.10;12.80;;;;;;;;;;5102316;27;20047;-89
2021/12/22 00:23:22;;;;;;;23.13;12.63;;;;;;;;;;5102338;27;20571;-89
2021/12/22 00:25:48;;;;;;;19.33;13.30;;;;;;;;;;5101994;27;20083;-90
2021/12/22 00:28:14;;;;;;;27.45;12.88;;;;;;;;;;5103275;27;20051;-90
2021/12/22 00:30:40;;;;;;;17.15;12.30;;;;;;;;;;5103176;27;20039;-90
2021/12/22 00:33:09;;;;;;;24.70;13.95;;;;;;;;;;5119063;27;20226;-90
2021/12/22 00:35:39;;;;;;;22.63;13.32;;;;;;;;;;5102125;27;20047;-90
2021/12/22 00:38:06;;;;;;;22.80;13.75;;;;;;;;;;5118802;27;20058;-89
2021/12/22 00:40:33;;;;;;;22.50;14.18;;;;;;;;;;5101995;27;20053;-89
2021/12/22 00:42:59;;;;;;;21.35;13.65;;;;;;;;;;5101760;27;20073;-89
2021/12/22 00:45:28;;;;;;;19.10;12.65;;;;;;;;;;5101503;27;20088;-89
2021/12/22 00:47:54;;;;;;;18.27;13.52;;;;;;;;;;5102149;27;20548;-89
2021/12/22 00:50:20;;;;;;;28.08;14.00;;;;;;;;;;5101928;27;20050;-89
2021/12/22 00:52:46;;;;;;;26.48;13.43;;;;;;;;;;5102098;27;20419;-89
2021/12/22 00:55:17;;;;;;;24.13;14.20;;;;;;;;;;5102221;27;20415;-89
2021/12/22 00:57:43;;;;;;;25.55;13.43;;;;;;;;;;5101701;27;20090;-89
2021/12/22 01:00:09;;;;;;;22.60;13.07;;;;;;;;;;5101968;27;20039;-90
2021/12/22 01:02:36;;;;;;;22.00;13.32;;;;;;;;;;5102920;27;20046;-89
2021/12/22 01:05:02;;;;;;;25.80;14.55;;;;;;;;;;5101764;27;20043;-89
2021/12/22 01:07:28;;;;;;;23.92;13.23;;;;;;;;;;5118908;27;20065;-89
2021/12/22 01:09:54;;;;;;;24.30;13.60;;;;;;;;;;5102473;27;20043;-88
2021/12/22 01:12:20;;;;;;;20.48;13.80;;;;;;;;;;5118190;27;20052;-89
2021/12/22 01:14:46;;;;;;;22.45;14.35;;;;;;;;;;5103481;27;20065;-89
2021/12/22 01:17:14;;;;;;;28.17;13.43;;;;;;;;;;5101778;27;20043;-89
2021/12/22 01:20:02;;;;;;;19.98;12.60;;;;;;;;;;5100969;27;20055;-88
2021/12/22 01:22:46;;;;;;;25.42;12.93;;;;;;;;;;5101931;27;20088;-89
2021/12/22 01:25:14;;;;;;;;;;;-1.00;99.90;;;;;;5118929;27;20131;-89
2021/12/22 01:27:42;;;;;;;23.50;14.10;;;;;;;;;;5101262;27;19919;-89
2021/12/22 01:30:11;;;;;;;21.38;13.60;;;;;;;;;;5100667;27;20087;-88
2021/12/22 01:32:38;;;;;;;22.23;14.55;;;;;;;;;;5117884;27;20072;-89
2021/12/22 01:35:05;;;;;;;22.65;14.02;;;;;;;;;;5101210;27;20154;-89
2021/12/22 01:37:31;;;;;;;26.60;14.95;;;;;;;;;;5117665;27;20571;-89
2021/12/22 01:39:57;;;;;;;21.02;14.00;;;;;;;;;;5101153;27;20058;-89
2021/12/22 01:42:24;;;;;;;20.17;14.50;;;;;;;;;;5100765;27;20039;-89
2021/12/22 01:45:12;;;;;;;21.10;12.25;;;;;;;;;;5101159;27;20126;-89
2021/12/22 01:50:37;;;;;;;22.70;13.05;;;;;;;;;;5119018;27;20184;-89
2021/12/22 01:53:27;;;;;;;23.52;13.43;;;;;;;;;;5102007;27;20039;-89
2021/12/22 01:56:20;;;;;;;21.13;13.32;;;;;;;;;;5001614;28;20063;-89
2021/12/22 01:58:48;;;;;;;24.95;13.65;;;;;;;;;;4999286;28;20135;-88
2021/12/22 02:01:15;;;;;;;22.90;13.88;;;;;;;;;;5000169;28;20187;-89
2021/12/22 02:03:41;;;;;;;23.70;13.73;;;;;;;;;;5000203;28;20068;-89
2021/12/22 02:06:11;;;;;;;20.73;13.40;;;;;;;;;;4999715;28;20041;-89
2021/12/22 02:08:38;;;;;;;22.95;13.07;;;;;;;;;;5000063;28;20128;-88
2021/12/22 02:11:04;;;;;;;21.73;13.75;;;;;;;;;;4999643;28;20056;-89
2021/12/22 02:13:37;;;;;;;22.73;13.88;;;;;;;;;;5016334;28;20414;-88
2021/12/22 02:16:08;;;;;;;22.17;13.65;;;;;;;;;;5000678;28;20045;-88
2021/12/22 02:18:35;;;;;;;31.15;14.15;;;;;;;;;;5000711;28;20525;-88
2021/12/22 02:21:02;;;;;;;21.85;15.20;;;;;;;;;;4999615;28;20064;-89
2021/12/22 02:23:28;;;;;;;20.65;13.95;;;;;;;;;;5017190;28;20192;-89
2021/12/22 02:25:59;;;;;;;18.50;12.63;;;;;;;;;;5000153;28;20049;-89
2021/12/22 02:28:30;;;;;;;17.38;12.30;;;;;;;;;;5016214;28;20042;-89
2021/12/22 02:30:56;;;;;;;21.98;13.80;;;;;;;;;;5000442;28;20490;-89
2021/12/22 02:33:35;;;;;;;20.23;13.27;;;;;;;;;;5088671;28;20082;-89
2021/12/22 02:38:31;;;;;;;20.55;13.25;;;;;;;;;;5117404;28;20058;-89
2021/12/22 02:40:57;;;;;;;19.58;14.13;;;;;;;;;;5100920;28;20043;-90
2021/12/22 02:43:24;;;;;;;20.67;12.98;;;;;;;;;;5116602;28;20407;-89
2021/12/22 02:45:52;;;;;;;19.48;13.52;;;;;;;;;;5116897;28;20057;-89
2021/12/22 02:48:18;;;;;;;21.98;14.85;;;;;;;;;;5100355;28;20046;-89
2021/12/22 02:50:45;;;;;;;22.02;14.65;;;;;;;;;;5117358;28;20065;-89
2021/12/22 02:53:15;;;;;;;21.92;13.15;;;;;;;;;;5100225;28;20126;-89
2021/12/22 02:55:56;;;;;;;23.58;15.10;;;;;;;;;;5100905;28;20043;-89
2021/12/22 02:58:57;;;;;;;22.13;13.73;;;;;;;;;;5100098;28;20118;-88
2021/12/22 03:01:53;;;;;;;21.90;14.77;;;;;;;;;;5116550;28;20083;-88
2021/12/22 03:04:17;;;;;;;21.17;13.65;;;;;;;;;;5116964;28;20444;-90
2021/12/22 03:06:58;;;;;;;24.23;15.77;;;;;;;;;;5099717;28;20047;-88
2021/12/22 03:09:25;;;;;;;24.02;14.38;;;;;;;;;;5100143;28;20099;-88
2021/12/22 03:11:52;;;;;;;27.70;14.90;;;;;;;;;;5099510;28;20043;-88
2021/12/22 03:14:19;;;;;;;28.70;14.75;;;;;;;;;;5099786;28;20047;-88
2021/12/22 03:16:45;;;;;;;19.05;13.13;;;;;;;;;;5099945;28;20476;-88
2021/12/22 03:19:12;;;;;;;21.73;14.52;;;;;;;;;;5100572;28;20057;-89
2021/12/22 03:21:40;;;;;;;26.63;14.70;;;;;;;;;;5100049;28;20062;-89
2021/12/22 03:24:07;;;;;;;23.63;14.95;;;;;;;;;;5099475;28;20039;-88
2021/12/22 03:26:33;;;;;;;23.63;14.98;;;;;;;;;;5106629;28;20043;-89
2021/12/22 03:28:59;;;;;;;21.65;12.82;;;;;;;;;;5107454;28;20050;-88
2021/12/22 03:31:26;;;;;;;21.10;13.40;;;;;;;;;;5123696;28;20092;-88
2021/12/22 03:33:52;;;;;;;29.45;15.77;;;;;;;;;;5111262;27;20126;-88
2021/12/22 03:36:18;;;;;;;21.80;14.10;;;;;;;;;;5126623;27;20411;-88
2021/12/22 03:38:45;;;;;;;18.88;13.40;;;;;;;;;;5120665;27;20051;-88
2021/12/22 03:41:11;;;;;;;23.35;15.73;;;;;;;;;;5120109;27;20047;-88
2021/12/22 03:43:37;;;;;;;27.92;14.50;;;;;;;;;;5120188;27;20050;-88
2021/12/22 03:46:04;;;;;;;22.77;13.52;;;;;;;;;;5103558;27;20040;-88
2021/12/22 03:48:30;;;;;;;27.45;13.07;;;;;;;;;;5103659;27;20403;-88
2021/12/22 03:50:56;;;;;;;21.25;14.30;;;;;;;;;;5102632;27;20046;-88
2021/12/22 03:53:23;;;;;;;22.67;14.38;;;;;;;;;;5119612;27;20054;-88
2021/12/22 03:55:49;;;;;;;22.58;14.57;;;;;;;;;;5103436;27;20042;-88
2021/12/22 03:58:15;;;;;;;20.17;13.45;;;;;;;;;;5120317;27;20138;-88
2021/12/22 04:00:42;;;;;;;18.88;13.63;;;;;;;;;;5103014;27;20035;-89
2021/12/22 04:03:15;;;;;;;19.80;12.10;;;;;;;;;;5102537;27;20495;-88
2021/12/22 04:05:41;;;;;;;22.42;14.55;;;;;;;;;;5120229;27;20126;-88
2021/12/22 04:08:07;;;;;;;23.75;13.43;;;;;;;;;;5120093;27;20456;-88
2021/12/22 04:10:33;;;;;;;23.48;14.75;;;;;;;;;;5103091;27;20179;-89
2021/12/22 04:12:59;;;;;;;23.08;12.65;;;;;;;;;;5120066;27;20082;-88
2021/12/22 04:15:27;;;;;;;26.02;13.70;;;;;;;;;;5102897;27;20050;-88
2021/12/22 04:17:54;;;;;;;20.10;13.32;;;;;;;;;;5104008;27;20401;-88
2021/12/22 04:20:20;;;;;;;20.67;11.75;;;;;;;;;;5102672;27;20051;-88
2021/12/22 04:22:46;;;;;;;21.05;11.55;;;;;;;;;;5102601;27;20388;-88
2021/12/22 04:25:20;;;;;;;26.70;13.85;;;;;;;;;;5103035;27;20488;-88
2021/12/22 04:27:46;;;;;;;;;;;-2.00;99.90;;;;;;5103480;27;20054;-89
2021/12/22 04:30:12;;;;;;;22.98;12.55;;;;;;;;;;5102189;27;19926;-88
2021/12/22 04:32:38;;;;;;;19.00;12.32;;;;;;;;;;5120196;27;20043;-88
2021/12/22 04:35:05;;;;;;;25.17;14.55;;;;;;;;;;5119636;27;20079;-90
2021/12/22 04:37:31;;;;;;;24.25;13.05;;;;;;;;;;5102157;27;20111;-89
2021/12/22 04:39:57;;;;;;;24.45;13.50;;;;;;;;;;5102088;27;20095;-90
2021/12/22 04:42:23;;;;;;;25.13;13.57;;;;;;;;;;5119782;27;20054;-90
2021/12/22 04:44:53;;;;;;;22.67;13.30;;;;;;;;;;5101715;27;20045;-89
2021/12/22 04:47:19;;;;;;;24.20;13.43;;;;;;;;;;5101962;27;20119;-89
2021/12/22 04:49:47;;;;;;;22.90;12.90;;;;;;;;;;5119218;27;20480;-89
2021/12/22 04:52:18;;;;;;;17.95;12.45;;;;;;;;;;5118693;27;20043;-89
2021/12/22 04:55:02;;;;;;;20.30;11.68;;;;;;;;;;5102670;27;20039;-89
2021/12/22 04:57:28;;;;;;;18.23;11.77;;;;;;;;;;5118919;27;20097;-88
2021/12/22 05:00:05;;;;;;;20.20;12.82;;;;;;;;;;5119762;27;20051;-89
2021/12/22 05:02:31;;;;;;;26.10;11.45;;;;;;;;;;5137577;27;20046;-90
2021/12/22 05:04:57;;;;;;;20.60;11.88;;;;;;;;;;5120524;27;20496;-90
2021/12/22 05:07:23;;;;;;;21.98;13.13;;;;;;;;;;5118991;27;20412;-89
2021/12/22 05:09:49;;;;;;;25.95;12.63;;;;;;;;;;5119844;27;20043;-89
2021/12/22 05:12:15;;;;;;;22.33;12.60;;;;;;;;;;5136445;27;20477;-90
2021/12/22 05:14:44;;;;;;;19.35;12.63;;;;;;;;;;5118163;27;20126;-88
2021/12/22 05:17:18;;;;;;;23.10;12.90;;;;;;;;;;5118617;27;20058;-88
2021/12/22 05:19:44;;;;;;;25.60;12.63;;;;;;;;;;5137140;27;20039;-88
2021/12/22 05:22:10;;;;;;;21.27;12.10;;;;;;;;;;5118701;27;20055;-87
2021/12/22 05:24:36;;;;;;;21.75;12.02;;;;;;;;;;5119166;27;20050;-87
2021/12/22 05:27:07;;;;;;;16.13;11.27;;;;;;;;;;5119008;27;20047;-87
2021/12/22 05:29:33;;;;;;;19.38;11.80;;;;;;;;;;5101815;27;20064;-87
2021/12/22 05:32:01;;;;;;;21.50;12.23;;;;;;;;;;5118713;27;20047;-87
2021/12/22 05:34:27;;;;;;;24.90;12.10;;;;;;;;;;5100478;27;20054;-87
2021/12/22 05:36:54;;;;;;;22.50;12.45;;;;;;;;;;5118010;27;20047;-86
2021/12/22 05:39:20;;;;;;;21.10;10.93;;;;;;;;;;5136857;27;20122;-88
2021/12/22 05:41:46;;;;;;;21.23;12.55;;;;;;;;;;5136278;27;20077;-87
2021/12/22 05:44:12;;;;;;;24.80;12.07;;;;;;;;;;5117815;27;20042;-88
2021/12/22 05:46:38;;;;;;;20.40;12.88;;;;;;;;;;5100674;27;20049;-87
2021/12/22 05:49:04;;;;;;;18.90;12.35;;;;;;;;;;5136059;27;20172;-88
2021/12/22 05:51:33;;;;;;;22.17;11.50;;;;;;;;;;5117608;27;20043;-86
2021/12/22 05:53:59;;;;;;;20.85;12.82;;;;;;;;;;5101318;27;20051;-87
2021/12/22 05:56:30;;;;;;;23.13;14.27;;;;;;;;;;5099966;27;20134;-89
2021/12/22 05:58:56;;;;;;;17.10;11.70;;;;;;;;;;5118272;27;20080;-89
2021/12/22 06:01:22;;;;;;;17.23;11.77;;;;;;;;;;5100805;27;20047;-86
2021/12/22 06:03:48;;;;;;;23.13;11.82;;;;;;;;;;5101953;27;20377;-87
2021/12/22 06:06:14;;;;;;;20.90;11.85;;;;;;;;;;5101001;27;20483;-86
2021/12/22 06:08:45;;;;;;;21.95;11.88;;;;;;;;;;5100856;28;20047;-87
2021/12/22 06:11:11;;;;;;;16.67;11.43;;;;;;;;;;5100716;27;20039;-86
2021/12/22 06:13:37;;;;;;;19.98;11.32;;;;;;;;;;5100644;28;20131;-86
2021/12/22 06:16:03;;;;;;;23.25;13.38;;;;;;;;;;5100886;27;20054;-86
2021/12/22 06:18:29;;;;;;;24.75;13.32;;;;;;;;;;5100665;28;20480;-87
2021/12/22 06:20:55;;;;;;;21.75;14.30;;;;;;;;;;5100820;28;20085;-86
2021/12/22 06:23:21;;;;;;;19.98;12.18;;;;;;;;;;5100602;28;20035;-87
2021/12/22 06:25:47;;;;;;;26.35;12.73;;;;;;;;;;5100511;28;20039;-86
2021/12/22 06:28:13;;;;;;;18.02;11.35;;;;;;;;;;5100431;28;20407;-86
2021/12/22 06:30:40;;;;;;;29.77;13.52;;;;;;;;;;5100596;28;20046;-87
2021/12/22 06:33:06;;;;;;;25.95;13.15;;;;;;;;;;5135856;28;20126;-85
2021/12/22 06:35:32;;;;;;;22.15;12.68;;;;;;;;;;5135217;28;20081;-87
2021/12/22 06:37:58;;;;;;;23.27;12.57;;;;;;;;;;5100260;28;20050;-85
2021/12/22 06:40:24;;;;;;;22.17;13.40;;;;;;;;;;5135821;28;20047;-87
2021/12/22 06:42:50;;;;;;;22.58;12.77;;;;;;;;;;5135979;28;20075;-87
2021/12/22 06:45:16;;;;;;;32.05;12.88;;;;;;;;;;5118044;28;20039;-86
2021/12/22 06:47:42;;;;;;;23.38;12.98;;;;;;;;;;5118484;28;20043;-86
2021/12/22 06:50:09;;;;;;;22.35;12.88;;;;;;;;;;5117746;28;20047;-87
2021/12/22 06:52:35;;;;;;;20.02;11.88;;;;;;;;;;5116909;28;20434;-86
2021/12/22 06:55:01;;;;;;;22.23;11.88;;;;;;;;;;5117036;28;20054;-86
2021/12/22 06:57:29;;;;;;;23.60;12.27;;;;;;;;;;5117113;28;20465;-86
2021/12/22 06:59:57;;;;;;;19.30;11.38;;;;;;;;;;5135641;28;20119;-86
2021/12/22 07:02:25;;;;;;;20.17;10.90;;;;;;;;;;5117333;28;20081;-86
2021/12/22 07:04:51;;;;;;;21.27;13.50;;;;;;;;;;5117323;28;20123;-87
2021/12/22 07:07:17;;;;;;;20.63;13.70;;;;;;;;;;5102642;27;20556;-87
2021/12/22 07:09:43;;;;;;;20.90;11.90;;;;;;;;;;5103777;27;20070;-87
2021/12/22 07:12:10;;;;;;;19.65;12.35;;;;;;;;;;5102931;27;20039;-87
2021/12/22 07:14:36;;;;;;;24.95;12.40;;;;;;;;;;5120788;27;20039;-86
2021/12/22 07:17:03;;;;;;;20.05;12.65;;;;;;;;;;5103563;27;20047;-87
2021/12/22 07:19:29;;;;;;;25.23;12.15;;;;;;;;;;5103411;27;20404;-89
2021/12/22 07:21:55;;;;;;;20.15;12.52;;;;;;;;;;5104471;27;20046;-88
2021/12/22 07:24:21;;;;;;;21.13;14.95;;;;;;;;;;5120957;27;20039;-89
2021/12/22 07:26:47;;;;;;;17.13;11.18;;;;;;;;;;5103376;27;20091;-88
2021/12/22 07:29:13;;;;;;;21.73;13.20;;;;;;;;;;5138915;27;20092;-86
2021/12/22 07:31:39;;;;;;;23.23;11.98;;;;;;;;;;5138058;27;20043;-88
2021/12/22 07:34:08;;;;;;;22.08;11.27;;;;;;;;;;5103109;27;20050;-87
2021/12/22 07:36:41;;;;;;;19.02;12.32;;;;;;;;;;5119600;27;20058;-88
2021/12/22 07:39:07;;;;;;;24.63;13.13;;;;;;;;;;5121217;27;20411;-89
2021/12/22 07:41:33;;;;;;;26.90;12.80;;;;;;;;;;5103778;27;20449;-88
2021/12/22 07:43:59;;;;;;;21.90;11.55;;;;;;;;;;5103328;27;20051;-89
2021/12/22 07:46:25;;;;;;;24.33;11.65;;;;;;;;;;5103792;27;20050;-89
2021/12/22 07:48:52;;;;;;;22.75;12.63;;;;;;;;;;5103744;27;20491;-87
2021/12/22 07:51:18;;;;;;;24.17;13.05;;;;;;;;;;5138922;27;20046;-87
2021/12/22 07:53:44;;;;;;;22.40;11.65;;;;;;;;;;5137999;27;20514;-89
2021/12/22 07:56:11;;;;;;;20.63;12.75;;;;;;;;;;5104213;27;20122;-86
2021/12/22 07:58:37;;;;;;;21.60;13.00;;;;;;;;;;5138321;27;20046;-89
2021/12/22 08:01:03;;;;;;;28.55;13.73;;;;;;;;;;5138320;27;20399;-89
2021/12/22 08:03:29;;;;;;;22.45;13.25;;;;;;;;;;5102737;27;20058;-87
2021/12/22 08:05:56;;;;;;;20.17;12.60;;;;;;;;;;5138139;27;20039;-89
2021/12/22 08:08:22;;;;;;;21.08;12.73;;;;;;;;;;5138462;27;20039;-89
2021/12/22 08:10:48;;;;;;;22.27;12.52;;;;;;;;;;5137709;27;20054;-86
2021/12/22 08:13:15;;;;;;;25.75;12.82;;;;;;;;;;5138088;27;20333;-87
2021/12/22 08:15:42;;;;;;;23.38;13.05;;;;;;;;;;5102864;27;20043;-87
2021/12/22 08:18:08;;;;;;;30.38;13.93;;;;;;;;;;5137386;27;20075;-86
2021/12/22 08:20:34;;;;;;;30.83;14.02;;;;;;;;;;5138115;27;20043;-87
2021/12/22 08:23:00;;;;;;;28.55;13.27;;;;;;;;;;5137997;27;20077;-87
2021/12/22 08:25:27;;;;;;;18.23;11.63;;;;;;;;;;5138344;27;20046;-86
2021/12/22 08:27:53;;;;;;;22.30;12.90;;;;;;;;;;5102378;27;20050;-88
2021/12/22 08:30:19;;;;;;;18.60;11.07;;;;;;;;;;5102625;27;20047;-86
2021/12/22 08:32:45;;;;;;;22.50;10.95;;;;;;;;;;5120456;27;20062;-88
2021/12/22 08:35:14;;;;;;;19.55;10.63;;;;;;;;;;5138016;27;20455;-89
2021/12/22 08:40:25;;;;;;;23.35;12.38;;;;;;;;;;5119548;27;20072;-89
2021/12/22 08:42:51;;;;;;;19.60;9.65;;;;;;;;;;5119530;27;20149;-88
2021/12/22 08:45:18;;;;;;;21.23;11.90;;;;;;;;;;5103598;27;20047;-87
2021/12/22 08:47:44;;;;;;;23.58;12.57;;;;;;;;;;5102141;27;20071;-88
2021/12/22 08:50:11;;;;;;;19.90;12.45;;;;;;;;;;5102638;27;20443;-89
2021/12/22 08:52:37;;;;;;;21.25;13.13;;;;;;;;;;5102410;27;20112;-89
2021/12/22 08:55:04;;;;;;;23.95;12.77;;;;;;;;;;5102812;27;20501;-90
2021/12/22 08:57:30;;;;;;;21.77;12.15;;;;;;;;;;5119982;27;20054;-89
2021/12/22 08:59:56;;;;;;;21.38;12.95;;;;;;;;;;5103769;27;20371;-88
2021/12/22 09:02:23;;;;;;;21.17;11.65;;;;;;;;;;5102576;27;20050;-89
2021/12/22 09:04:49;;;;;;;22.40;11.82;;;;;;;;;;5102624;27;20047;-89
2021/12/22 09:07:15;;;;;;;19.27;11.63;;;;;;;;;;5102906;27;20071;-89
2021/12/22 09:09:41;;;;;;;22.20;11.65;;;;;;;;;;5102610;27;20038;-91
2021/12/22 09:12:08;;;;;;;28.05;13.40;;;;;;;;;;5103189;27;20039;-91
2021/12/22 09:14:34;;;;;;;22.98;12.38;;;;;;;;;;5101665;27;20042;-90
2021/12/22 09:17:00;;;;;;;21.83;11.32;;;;;;;;;;5119740;27;20050;-91
2021/12/22 09:19:26;;;;;;;22.38;12.45;;;;;;;;;;5119659;27;20039;-91
2021/12/22 09:21:52;;;;;;;28.92;13.95;;;;;;;;;;5101396;27;20049;-92
2021/12/22 09:24:19;;;;;;;23.58;12.70;;;;;;;;;;5119517;27;20039;-91
2021/12/22 09:26:45;;;;;;;21.73;11.43;;;;;;;;;;5102219;27;20039;-91
2021/12/22 09:29:11;;;;;;;19.80;12.07;;;;;;;;;;5101352;28;20050;-92
2021/12/22 09:31:38;;;;;;;29.38;13.40;;;;;;;;;;5102191;27;20107;-91
2021/12/22 09:34:04;;;;;;;25.02;13.32;;;;;;;;;;5101750;27;20031;-92
2021/12/22 09:36:31;;;;;;;19.75;10.82;;;;;;;;;;5119200;27;20059;-91
2021/12/22 09:38:57;;;;;;;34.42;13.23;;;;;;;;;;5101687;27;20403;-91
2021/12/22 09:41:23;;;;;;;26.98;11.32;;;;;;;;;;5101368;27;20130;-90
2021/12/22 09:43:52;;;;;;;20.83;11.88;;;;;;;;;;5101312;27;20050;-90
2021/12/22 09:46:21;;;;;;;26.13;13.20;;;;;;;;;;5100982;27;20042;-92
2021/12/22 09:53:45;;;;;;;19.23;11.52;;;;;;;;;;5118522;27;20051;-92
2021/12/22 09:56:12;;;;;;;23.42;12.38;;;;;;;;;;5102090;27;20061;-92
2021/12/22 09:58:42;;;;;;;19.75;12.02;;;;;;;;;;5118438;27;20106;-93
2021/12/22 10:01:08;;;;;;;22.15;12.73;;;;;;;;;;5101858;28;20043;-92
2021/12/22 10:03:35;;;;;;;20.10;10.93;;;;;;;;;;5118701;27;20039;-89
2021/12/22 10:06:02;;;;;;;20.20;12.98;;;;;;;;;;5136854;27;20054;-89
2021/12/22 10:08:28;;;;;;;21.40;12.50;;;;;;;;;;5101226;27;20058;-91
2021/12/22 10:11:03;;;;;;;20.58;11.73;;;;;;;;;;5136614;27;20042;-89
2021/12/22 10:13:30;;;;;;;23.52;14.20;;;;;;;;;;5136686;27;20043;-90
2021/12/22 10:15:57;;;;;;;27.05;14.27;;;;;;;;;;5101036;27;20047;-89
2021/12/22 10:18:24;;;;;;;25.38;12.60;;;;;;;;;;5118016;28;20099;-90
2021/12/22 10:20:52;;;;;;;24.25;12.70;;;;;;;;;;5100774;28;20095;-91
2021/12/22 10:23:19;;;;;;;27.75;14.48;;;;;;;;;;5117689;28;20093;-90
2021/12/22 10:25:50;;;;;;;23.95;13.60;;;;;;;;;;5117993;28;20043;-91
2021/12/22 10:28:18;;;;;;;24.13;12.45;;;;;;;;;;5100868;28;20053;-90
2021/12/22 10:30:44;;;;;;;21.48;11.35;;;;;;;;;;5100796;28;20046;-89
2021/12/22 10:33:13;;;;;;;18.75;11.35;;;;;;;;;;5118704;28;20043;-91
2021/12/22 10:35:40;;;;;;;21.80;11.70;;;;;;;;;;5100937;28;20054;-90
2021/12/22 10:38:07;;;;;;;23.30;12.65;;;;;;;;;;5117874;28;20051;-89
2021/12/22 10:40:35;;;;;;;25.65;13.70;;;;;;;;;;5100802;27;20049;-90
2021/12/22 10:43:02;;;;;;;19.95;11.80;;;;;;;;;;5122578;27;20453;-90
2021/12/22 10:45:34;;;;;;;21.50;12.13;;;;;;;;;;5106125;27;20115;-90
2021/12/22 10:50:46;;;;;;;22.77;11.63;;;;;;;;;;5121488;27;20390;-89
2021/12/22 10:53:14;;;;;;;23.67;11.80;;;;;;;;;;5103234;27;20081;-90
2021/12/22 10:55:41;;;;;;;25.50;11.75;;;;;;;;;;5104001;27;20031;-89
2021/12/22 10:58:19;;;;;;;21.55;11.82;;;;;;;;;;5121003;27;20074;-89
2021/12/22 11:00:59;;;;;;;21.63;11.75;;;;;;;;;;5104337;27;20082;-89
2021/12/22 11:03:32;;;;;;;19.23;11.32;;;;;;;;;;5104048;27;20116;-89
2021/12/22 11:06:01;;;;;;;19.83;11.70;;;;;;;;;;5120367;27;20091;-89
2021/12/22 11:08:27;;;;;;;23.23;12.63;;;;;;;;;;5103796;27;20377;-89
2021/12/22 11:10:53;;;;;;;22.25;11.10;;;;;;;;;;5104056;27;20043;-89
2021/12/22 11:13:24;;;;;;;19.92;12.05;;;;;;;;;;5104217;27;20555;-90
2021/12/22 11:15:50;;;;;;;17.80;11.23;;;;;;;;;;5103715;27;20088;-90
2021/12/22 11:18:37;;;;;;;22.63;11.10;;;;;;;;;;5120299;27;20043;-90
2021/12/22 11:21:27;;;;;;;21.48;11.95;;;;;;;;;;5103424;27;20071;-90
2021/12/22 11:23:53;;;;;;;20.20;11.15;;;;;;;;;;5104622;27;20130;-89
2021/12/22 11:26:20;;;;;;;18.58;11.15;;;;;;;;;;5104173;27;20035;-90
2021/12/22 11:28:46;;;;;;;21.88;13.25;;;;;;;;;;5103800;27;20107;-89
2021/12/22 11:31:12;;;;;;;24.83;12.48;;;;;;;;;;5103320;27;20046;-90
2021/12/22 11:33:40;;;;;;;20.52;11.40;;;;;;;;;;5104348;27;20085;-90
2021/12/22 11:36:08;;;;;;;28.92;12.15;;;;;;;;;;5103283;27;20047;-91
2021/12/22 11:38:34;;;;;;;15.68;11.48;;;;;;;;;;5119634;27;20092;-90
2021/12/22 11:41:14;;;;;;;23.08;12.07;;;;;;;;;;5103915;27;20054;-91
2021/12/22 11:43:41;;;;;;;21.15;11.40;;;;;;;;;;5102762;27;20104;-89
2021/12/22 11:46:07;;;;;;;18.38;10.32;;;;;;;;;;5103158;27;20399;-90
2021/12/22 11:48:34;;;;;;;19.67;12.10;;;;;;;;;;5103147;27;20444;-91
2021/12/22 11:51:00;;;;;;;19.98;11.05;;;;;;;;;;5120550;27;20130;-91
2021/12/22 11:53:26;;;;;;;19.88;11.57;;;;;;;;;;5101993;27;20050;-91
2021/12/22 11:55:55;;;;;;;18.50;10.13;;;;;;;;;;5103749;27;20065;-91
2021/12/22 11:58:26;;;;;;;20.23;10.57;;;;;;;;;;5102807;27;20047;-91
2021/12/22 12:00:55;;;;;;;17.02;11.48;;;;;;;;;;5120523;27;20046;-92
2021/12/22 12:03:21;;;;;;;22.35;11.40;;;;;;;;;;5104248;27;20047;-91
2021/12/22 12:06:08;;;;;;;17.15;11.35;;;;;;;;;;5103246;27;20051;-91
2021/12/22 12:08:36;;;;;;;17.20;10.45;;;;;;;;;;5120241;27;20065;-91
2021/12/22 12:11:02;;;;;;;18.70;11.98;;;;;;;;;;5102841;27;20043;-91
2021/12/22 12:13:37;;;;;;;20.23;10.43;;;;;;;;;;5102031;27;20042;-91
2021/12/22 12:22:07;;;;;;;19.63;11.48;;;;;;;;;;5119810;27;20083;-91
2021/12/22 12:24:37;;;;;;;18.70;10.63;;;;;;;;;;5102953;27;20402;-91
2021/12/22 12:27:24;;;;;;;22.73;11.23;;;;;;;;;;5102645;27;20039;-90
2021/12/22 12:29:56;;;;;;;20.83;11.70;;;;;;;;;;5018063;28;20064;-91
2021/12/22 12:32:40;;;;;;;19.92;11.73;;;;;;;;;;5002287;28;20514;-90
2021/12/22 12:35:17;;;;;;;;;;;-0.10;99.90;;;;;;5018604;28;20051;-91
2021/12/22 12:38:02;;;;;;;17.83;11.30;;;-0.30;99.90;;;;;;5001415;28;19921;-91
2021/12/22 12:40:46;;;;;;;22.42;10.98;;;;;;;;;;5001805;28;20115;-90
2021/12/22 12:43:12;;;;;;;19.77;11.05;;;;;;;;;;5001940;28;20064;-88
2021/12/22 12:49:17;;;;;;;22.15;10.70;;;;;;;;;;4999440;28;20050;-94
2021/12/22 12:51:45;;;;;;;23.73;13.38;;;;;;;;;;4988451;28;20096;-95
2021/12/22 12:57:20;;;;;;;18.98;11.05;;;;;;;;;;4959776;28;20087;-94
2021/12/22 12:59:50;;;;;;;21.77;11.88;;;;;;;;;;4960372;28;20439;-95
2021/12/22 13:02:19;;;;;;;18.50;9.98;;;;;;;;;;4960187;28;20057;-89
2021/12/22 13:04:45;;;;;;;21.85;12.25;;;;;;;;;;4959503;28;20222;-94
2021/12/22 13:07:15;;;;;;;18.17;11.10;;;;;;;;;;5014115;28;20068;-94
2021/12/22 13:09:45;;;;;;;18.80;11.65;;;;;;;;;;5035554;28;20084;-95
2021/12/22 13:12:19;;;;;;;17.98;10.10;;;;;;;;;;5034825;28;20049;-89
2021/12/22 13:17:34;;;;;;;21.60;11.50;;;;;;;;;;5017810;28;20049;-96
2021/12/22 13:20:00;;;;;;;17.92;10.82;;;;;;;;;;5034886;28;20077;-95
2021/12/22 13:22:29;;;;;;;15.63;10.70;;;;;;;;;;5034231;28;20410;-95
2021/12/22 13:25:07;;;;;;;15.57;10.45;;;;;;;;;;5034403;28;20568;-96
2021/12/22 13:27:33;;;;;;;16.30;10.45;;;;;;;;;;5034312;28;20084;-96
2021/12/22 13:30:10;;;;;;;22.42;12.80;;;;;;;;;;5033887;28;20461;-94
2021/12/22 13:32:36;;;;;;;18.98;10.25;;;;;;;;;;5017156;28;20041;-96
2021/12/22 13:35:03;;;;;;;15.77;10.25;;;;;;;;;;5130883;27;20059;-96
2021/12/22 13:37:30;;;;;;;16.77;10.30;;;;;;;;;;5102025;27;20054;-96
2021/12/22 13:39:57;;;;;;;17.60;9.43;;;;;;;;;;5136680;27;20075;-95
2021/12/22 13:42:23;;;;;;;18.17;11.02;;;;;;;;;;5118750;27;20092;-94
2021/12/22 13:44:49;;;;;;;15.10;10.52;;;;;;;;;;5137304;27;20046;-95
2021/12/22 13:47:15;;;;;;;18.00;10.52;;;;;;;;;;5137185;27;20471;-93
2021/12/22 13:49:41;;;;;;;23.33;11.23;;;;;;;;;;5137531;27;20050;-96
2021/12/22 13:52:07;;;;;;;22.95;10.38;;;;;;;;;;5136818;27;20050;-96
2021/12/22 13:54:33;;;;;;;20.10;11.88;;;;;;;;;;5118216;27;20055;-96
2021/12/22 13:57:02;;;;;;;19.38;11.82;;;;;;;;;;5118304;27;20485;-94
2021/12/22 13:59:30;;;;;;;20.98;11.48;;;;;;;;;;5118503;27;20039;-95
2021/12/22 14:01:57;;;;;;;16.80;10.10;;;;;;;;;;5118648;27;20085;-96
2021/12/22 14:04:28;;;;;;;19.80;12.48;;;;;;;;;;5101761;27;20039;-95
2021/12/22 14:06:55;;;;;;;20.85;11.82;;;;;;;;;;5101360;27;20047;-94
2021/12/22 14:09:22;;;;;;;18.30;11.02;;;;;;;;;;5101610;27;20043;-96
2021/12/22 14:11:54;;;;;;;21.83;11.32;;;;;;;;;;5118264;27;20039;-88
2021/12/22 14:14:20;;;;;;;19.05;10.65;;;;;;;;;;5101419;27;20074;-88
2021/12/22 14:16:47;;;;;;;15.55;10.85;;;;;;;;;;5135187;27;20127;-86
2021/12/22 14:19:20;;;;;;;20.60;11.60;;;;;;;;;;5116883;28;20088;-87
2021/12/22 14:21:49;;;;;;;14.35;10.20;;;;;;;;;;5099631;28;20099;-87
2021/12/22 14:24:20;;;;;;;18.67;11.13;;;;;;;;;;5101354;28;20406;-87
2021/12/22 14:26:49;;;;;;;13.93;9.50;;;;;;;;;;5135212;28;20047;-87
2021/12/22 14:29:15;;;;;;;17.17;10.63;;;;;;;;;;5135393;28;20066;-87
2021/12/22 14:32:01;;;;;;;19.45;10.85;;;;;;;;;;5116713;28;20043;-87
2021/12/22 14:34:28;;;;;;;16.15;10.85;;;;;;;;;;5135623;28;20107;-87
2021/12/22 14:36:54;;;;;;;14.07;10.48;;;;;;;;;;5099884;28;20047;-87
2021/12/22 14:39:21;;;;;;;17.48;10.25;;;;;;;;;;5117759;28;20087;-85
2021/12/22 14:41:47;;;;;;;18.52;10.50;;;;;;;;;;5116853;28;20046;-85
2021/12/22 14:44:17;;;;;;;16.63;11.05;;;;;;;;;;5099821;28;20139;-85
2021/12/22 14:46:43;;;;;;;16.50;9.57;;;;;;;;;;5135606;28;20096;-86
2021/12/22 14:49:37;;;;;;;16.58;10.18;;;;;;;;;;5117587;28;20377;-86
2021/12/22 14:52:06;;;;;;;16.50;10.70;;;;;;;;;;4999540;28;20054;-85
2021/12/22 14:54:33;;;;;;;21.67;12.50;;;;;;;;;;5015318;28;20049;-85